LIPR 192350Z AUTO VRB01KT 9999 NCD 13/09 Q1026 LIPR 192320Z AUTO VRB01KT 9999 NCD 13/08 Q1026 LIPR 192250Z AUTO 22003KT 9999 NCD 14/09 Q1026 LIPR 192220Z AUTO VRB02KT 9999 NCD 14/08 Q1026 LIPR 192150Z AUTO 23002KT 9999 NCD 14/08 Q1026 LIPR 192120Z AUTO VRB02KT 9999 NCD 15/09 Q1026 LIPR 192050Z AUTO 14002KT 9999 NCD 16/09 Q1026 LIPR 192020Z AUTO 13004KT 9999 NCD 15/10 Q1026 LIPR 191950Z AUTO VRB02KT 9999 NCD 18/10 Q1026 LIPR 191920Z AUTO 12006KT 9999 NCD 18/10 Q1025 LIPR 191850Z AUTO 12005KT 9999 NCD 18/09 Q1025 LIPR 191820Z AUTO 11005KT 9999 NCD 19/11 Q1025 LIPR 191750Z 11009KT CAVOK 20/10 Q1025 LIPR 191720Z 11010KT CAVOK 21/10 Q1025 LIPR 191650Z 11010KT CAVOK 21/11 Q1025 LIPR 191620Z 11012KT 080V140 CAVOK 22/10 Q1025 LIPR 191550Z 11011KT 070V130 CAVOK 22/11 Q1025 LIPR 191520Z 10012KT CAVOK 22/11 Q1026 LIPR 191450Z 10011KT 060V120 CAVOK 22/11 Q1026 LIPR 191420Z 10010KT 060V130 CAVOK 23/12 Q1026 LIPR 191350Z 10010KT 060V130 CAVOK 23/12 Q1026 LIPR 191320Z 09011KT CAVOK 23/11 Q1027 LIPR 191250Z 09011KT CAVOK 23/08 Q1027 LIPR 191220Z 09011KT CAVOK 23/11 Q1027 LIPR 191150Z 09010KT CAVOK 22/12 Q1027 LIPR 191120Z 08008KT 040V120 CAVOK 22/12 Q1027 LIPR 191050Z 08008KT 030V120 CAVOK 22/14 Q1027 LIPR 191020Z 09008KT 050V120 CAVOK 22/14 Q1027 LIPR 190950Z 06007KT 040V110 CAVOK 22/14 Q1027 LIPR 190920Z 06006KT 010V100 CAVOK 22/14 Q1027 LIPR 190850Z 07006KT 040V110 CAVOK 21/14 Q1027 LIPR 190820Z 06005KT 030V110 CAVOK 21/14 Q1027 LIPR 190750Z 04005KT 010V080 CAVOK 21/14 Q1027 LIPR 190720Z 04004KT 350V080 CAVOK 21/13 Q1027 LIPR 190650Z VRB01KT CAVOK 22/13 Q1027 LIPR 190620Z 32003KT 280V360 CAVOK 19/12 Q1027 LIPR 190550Z AUTO VRB01KT 9999 NCD 19/13 Q1027 LIPR 190520Z AUTO VRB01KT 9999 NCD 18/13 Q1026 LIPR 190450Z AUTO 23003KT 9999 NCD 18/11 Q1026 LIPR 190420Z AUTO 23004KT 9999 NCD 16/11 Q1026 LIPR 190350Z AUTO VRB02KT 9999 NCD 12/10 Q1025 LIPR 190320Z AUTO 20003KT 9999 NCD 13/10 Q1025 LIPR 190250Z AUTO 21004KT 9999 FEW240/// 13/10 Q1025 LIPR 190220Z AUTO 23004KT 9999 NCD 13/10 Q1025 LIPR 190150Z AUTO 24003KT 9999 NCD 14/10 Q1025 LIPR 190120Z AUTO VRB02KT 9999 NCD 13/11 Q1025 LIPR 190050Z AUTO 20004KT 9999 NCD 14/11 Q1025 LIPR 190020Z AUTO 20003KT 160V240 9999 FEW240/// 14/11 Q1025 LIPR 182350Z AUTO VRB03KT 9999 NCD 14/11 Q1025 LIPR 182320Z AUTO 21004KT 150V240 9999 NCD 15/11 Q1025 LIPR 182250Z AUTO VRB02KT 9999 NCD 14/11 Q1025 LIPR 182220Z AUTO VRB02KT 9999 NCD 14/11 Q1025 LIPR 182150Z AUTO VRB01KT 9999 NCD 16/11 Q1025 LIPR 182120Z AUTO VRB02KT 9999 NCD 16/11 Q1025 LIPR 182050Z AUTO 21003KT 170V260 9999 NCD 17/12 Q1024 LIPR 182020Z AUTO VRB02KT 9999 NCD 17/12 Q1024 LIPR 181950Z AUTO VRB02KT 9999 NCD 19/13 Q1024 LIPR 181920Z AUTO 07003KT 050V180 9999 NCD 20/15 Q1024 LIPR 181850Z AUTO 06004KT 9999 NCD 19/14 Q1023 LIPR 181820Z AUTO 05004KT 9999 NCD 21/13 Q1023 LIPR 181750Z 09003KT 040V130 CAVOK 23/12 Q1023 LIPR 181720Z 10003KT 050V130 CAVOK 24/13 Q1022 LIPR 181650Z 09004KT 050V120 CAVOK 24/13 Q1022 LIPR 181620Z 08005KT 040V120 CAVOK 24/12 Q1022 LIPR 181550Z 08004KT 030V120 CAVOK 25/12 Q1023 LIPR 181520Z 11006KT 060V140 CAVOK 24/12 Q1023 LIPR 181450Z 11007KT 050V140 CAVOK 24/13 Q1023 LIPR 181420Z 12006KT 090V160 CAVOK 25/12 Q1023 LIPR 181350Z 10008KT 060V150 CAVOK 24/13 Q1023 LIPR 181320Z 12009KT 080V140 CAVOK 24/12 Q1023 LIPR 181250Z 11010KT 050V150 CAVOK 24/12 Q1023 LIPR 181220Z 12011KT 080V150 CAVOK 24/11 Q1022

METAR Messwerte "RIMINI (CIV/IT-A" LIPR

Zurück zur Übersicht

Ortsname
Ländercode / m ü. NN
Zeit Temperatur Taupunkt Rel.
Luftfeuchte
Luftdruck:
Altimeter
NN
Station
Wind in Beaufort
(Knoten)
Sichtweite
(Meter)
Wolken
(Meter über Grund)
Wettererscheinung
RIMINI (CIV/IT-A
IT 10
Fr 20.05. 01:5013977 %1026
1026
1025
Uml 1 (1)>= 10000  
RIMINI (CIV/IT-A
IT 10
Fr 20.05. 01:2013872 %1026
1026
1025
Uml 1 (1)>= 10000  
RIMINI (CIV/IT-A
IT 10
Fr 20.05. 00:5014972 %1026
1026
1025
SW 2 (3)>= 10000  
RIMINI (CIV/IT-A
IT 10
Fr 20.05. 00:2014867 %1026
1026
1025
Uml 1 (2)>= 10000  
RIMINI (CIV/IT-A
IT 10
Do 19.05. 23:5014867 %1026
1026
1025
SW 1 (2)>= 10000  
RIMINI (CIV/IT-A
IT 10
Do 19.05. 23:2015967 %1026
1026
1025
Uml 1 (2)>= 10000  
RIMINI (CIV/IT-A
IT 10
Do 19.05. 22:5016963 %1026
1026
1025
SO 1 (2)>= 10000  
RIMINI (CIV/IT-A
IT 10
Do 19.05. 22:20151072 %1026
1026
1025
SO 2 (4)>= 10000  
RIMINI (CIV/IT-A
IT 10
Do 19.05. 21:50181059 %1026
1026
1025
Uml 1 (2)>= 10000  
RIMINI (CIV/IT-A
IT 10
Do 19.05. 21:20181059 %1025
1025
1024
OSO 2 (6)>= 10000  
RIMINI (CIV/IT-A
IT 10
Do 19.05. 20:5018956 %1025
1025
1024
OSO 2 (5)>= 10000  
RIMINI (CIV/IT-A
IT 10
Do 19.05. 20:20191160 %1025
1025
1024
OSO 2 (5)>= 10000  
RIMINI (CIV/IT-A
IT 10
Do 19.05. 19:50201053 %1025
1025
1024
OSO 3 (9)>= 10000Nicht signifikant 
RIMINI (CIV/IT-A
IT 10
Do 19.05. 19:20211049 %1025
1025
1024
OSO 3 (10)>= 10000Nicht signifikant 
RIMINI (CIV/IT-A
IT 10
Do 19.05. 18:50211153 %1025
1025
1024
OSO 3 (10)>= 10000Nicht signifikant 
RIMINI (CIV/IT-A
IT 10
Do 19.05. 18:20221046 %1025
1025
1024
OSO 4 (12)
O - SO
>= 10000Nicht signifikant 
RIMINI (CIV/IT-A
IT 10
Do 19.05. 17:50221150 %1025
1025
1024
OSO 4 (11)
ONO - SO
>= 10000Nicht signifikant 
RIMINI (CIV/IT-A
IT 10
Do 19.05. 17:20221150 %1026
1026
1025
O 4 (12)>= 10000Nicht signifikant 
RIMINI (CIV/IT-A
IT 10
Do 19.05. 16:50221150 %1026
1026
1025
O 4 (11)
ONO - OSO
>= 10000Nicht signifikant 
RIMINI (CIV/IT-A
IT 10
Do 19.05. 16:20231250 %1026
1026
1025
O 3 (10)
ONO - SO
>= 10000Nicht signifikant 
RIMINI (CIV/IT-A
IT 10
Do 19.05. 15:50231250 %1026
1026
1025
O 3 (10)
ONO - SO
>= 10000Nicht signifikant 
RIMINI (CIV/IT-A
IT 10
Do 19.05. 15:20231147 %1027
1027
1026
O 4 (11)>= 10000Nicht signifikant 
RIMINI (CIV/IT-A
IT 10
Do 19.05. 14:5023838 %1027
1027
1026
O 4 (11)>= 10000Nicht signifikant 
RIMINI (CIV/IT-A
IT 10
Do 19.05. 14:20231147 %1027
1027
1026
O 4 (11)>= 10000Nicht signifikant 
RIMINI (CIV/IT-A
IT 10
Do 19.05. 13:50221253 %1027
1027
1026
O 3 (10)>= 10000Nicht signifikant 
RIMINI (CIV/IT-A
IT 10
Do 19.05. 13:20221253 %1027
1027
1026
O 3 (8)
NO - OSO
>= 10000Nicht signifikant 
RIMINI (CIV/IT-A
IT 10
Do 19.05. 12:50221460 %1027
1027
1026
O 3 (8)
NNO - OSO
>= 10000Nicht signifikant 
RIMINI (CIV/IT-A
IT 10
Do 19.05. 12:20221460 %1027
1027
1026
O 3 (8)
NO - OSO
>= 10000Nicht signifikant 
RIMINI (CIV/IT-A
IT 10
Do 19.05. 11:50221460 %1027
1027
1026
ONO 3 (7)
NO - OSO
>= 10000Nicht signifikant 
RIMINI (CIV/IT-A
IT 10
Do 19.05. 11:20221460 %1027
1027
1026
ONO 2 (6)
N - O
>= 10000Nicht signifikant 
RIMINI (CIV/IT-A
IT 10
Do 19.05. 10:50211464 %1027
1027
1026
ONO 2 (6)
NO - OSO
>= 10000Nicht signifikant 
RIMINI (CIV/IT-A
IT 10
Do 19.05. 10:20211464 %1027
1027
1026
ONO 2 (5)
NNO - OSO
>= 10000Nicht signifikant 
RIMINI (CIV/IT-A
IT 10
Do 19.05. 09:50211464 %1027
1027
1026
NO 2 (5)
N - O
>= 10000Nicht signifikant 
RIMINI (CIV/IT-A
IT 10
Do 19.05. 09:20211360 %1027
1027
1026
NO 2 (4)
N - O
>= 10000Nicht signifikant 
RIMINI (CIV/IT-A
IT 10
Do 19.05. 08:50221357 %1027
1027
1026
Uml 1 (1)>= 10000Nicht signifikant 
RIMINI (CIV/IT-A
IT 10
Do 19.05. 08:20191264 %1027
1027
1026
NW 2 (3)
W - N
>= 10000Nicht signifikant 
RIMINI (CIV/IT-A
IT 10
Do 19.05. 07:50191368 %1027
1027
1026
Uml 1 (1)>= 10000  
RIMINI (CIV/IT-A
IT 10
Do 19.05. 07:20181373 %1026
1026
1025
Uml 1 (1)>= 10000  
RIMINI (CIV/IT-A
IT 10
Do 19.05. 06:50181164 %1026
1026
1025
SW 2 (3)>= 10000  
RIMINI (CIV/IT-A
IT 10
Do 19.05. 06:20161172 %1026
1026
1025
SW 2 (4)>= 10000  
RIMINI (CIV/IT-A
IT 10
Do 19.05. 05:50121088 %1025
1025
1024
Uml 1 (2)>= 10000  
RIMINI (CIV/IT-A
IT 10
Do 19.05. 05:20131082 %1025
1025
1024
SSW 2 (3)>= 10000  
RIMINI (CIV/IT-A
IT 10
Do 19.05. 04:50131082 %1025
1025
1024
SSW 2 (4)>= 10000Leicht bewölkt (7300) 
RIMINI (CIV/IT-A
IT 10
Do 19.05. 04:20131082 %1025
1025
1024
SW 2 (4)>= 10000  
RIMINI (CIV/IT-A
IT 10
Do 19.05. 03:50141077 %1025
1025
1024
WSW 2 (3)>= 10000  
RIMINI (CIV/IT-A
IT 10
Do 19.05. 03:20131188 %1025
1025
1024
Uml 1 (2)>= 10000  
RIMINI (CIV/IT-A
IT 10
Do 19.05. 02:50141182 %1025
1025
1024
SSW 2 (4)>= 10000  
RIMINI (CIV/IT-A
IT 10
Do 19.05. 02:20141182 %1025
1025
1024
SSW 2 (3)
SSO - WSW
>= 10000Leicht bewölkt (7300) 
RIMINI (CIV/IT-A
IT 10
Do 19.05. 01:50141182 %1025
1025
1024
Uml 2 (3)>= 10000  
RIMINI (CIV/IT-A
IT 10
Do 19.05. 01:20151177 %1025
1025
1024
SSW 2 (4)
SSO - WSW
>= 10000  
RIMINI (CIV/IT-A
IT 10
Do 19.05. 00:50141182 %1025
1025
1024
Uml 1 (2)>= 10000  
RIMINI (CIV/IT-A
IT 10
Do 19.05. 00:20141182 %1025
1025
1024
Uml 1 (2)>= 10000  
RIMINI (CIV/IT-A
IT 10
Mi 18.05. 23:50161172 %1025
1025
1024
Uml 1 (1)>= 10000  
RIMINI (CIV/IT-A
IT 10
Mi 18.05. 23:20161172 %1025
1025
1024
Uml 1 (2)>= 10000  
RIMINI (CIV/IT-A
IT 10
Mi 18.05. 22:50171272 %1024
1024
1023
SSW 2 (3)
S - W
>= 10000  
RIMINI (CIV/IT-A
IT 10
Mi 18.05. 22:20171272 %1024
1024
1023
Uml 1 (2)>= 10000  
RIMINI (CIV/IT-A
IT 10
Mi 18.05. 21:50191368 %1024
1024
1023
Uml 1 (2)>= 10000  
RIMINI (CIV/IT-A
IT 10
Mi 18.05. 21:20201573 %1024
1024
1023
ONO 2 (3)
NO - S
>= 10000  
RIMINI (CIV/IT-A
IT 10
Mi 18.05. 20:50191473 %1023
1023
1022
ONO 2 (4)>= 10000  
RIMINI (CIV/IT-A
IT 10
Mi 18.05. 20:20211360 %1023
1023
1022
NO 2 (4)>= 10000  
RIMINI (CIV/IT-A
IT 10
Mi 18.05. 19:50231250 %1023
1023
1022
O 2 (3)
NO - SO
>= 10000Nicht signifikant 
RIMINI (CIV/IT-A
IT 10
Mi 18.05. 19:20241350 %1022
1022
1021
O 2 (3)
NO - SO
>= 10000Nicht signifikant 
RIMINI (CIV/IT-A
IT 10
Mi 18.05. 18:50241350 %1022
1022
1021
O 2 (4)
NO - OSO
>= 10000Nicht signifikant 
RIMINI (CIV/IT-A
IT 10
Mi 18.05. 18:20241247 %1022
1022
1021
O 2 (5)
NO - OSO
>= 10000Nicht signifikant 
RIMINI (CIV/IT-A
IT 10
Mi 18.05. 17:50251244 %1023
1023
1022
O 2 (4)
NNO - OSO
>= 10000Nicht signifikant 
RIMINI (CIV/IT-A
IT 10
Mi 18.05. 17:20241247 %1023
1023
1022
OSO 2 (6)
ONO - SO
>= 10000Nicht signifikant 
RIMINI (CIV/IT-A
IT 10
Mi 18.05. 16:50241350 %1023
1023
1022
OSO 3 (7)
NO - SO
>= 10000Nicht signifikant 
RIMINI (CIV/IT-A
IT 10
Mi 18.05. 16:20251244 %1023
1023
1022
OSO 2 (6)
O - SSO
>= 10000Nicht signifikant 
RIMINI (CIV/IT-A
IT 10
Mi 18.05. 15:50241350 %1023
1023
1022
O 3 (8)
ONO - SSO
>= 10000Nicht signifikant 
RIMINI (CIV/IT-A
IT 10
Mi 18.05. 15:20241247 %1023
1023
1022
OSO 3 (9)
O - SO
>= 10000Nicht signifikant 
RIMINI (CIV/IT-A
IT 10
Mi 18.05. 14:50241247 %1023
1023
1022
OSO 3 (10)
NO - SSO
>= 10000Nicht signifikant 
RIMINI (CIV/IT-A
IT 10
Mi 18.05. 14:20241144 %1022
1022
1021
OSO 4 (11)
O - SSO
>= 10000Nicht signifikant 

Altimeter: Einstellung am Altimeter (Höhenmesser), die Höhe 0 muss auf diesen Luftdruckwert zeigen, damit das Gerät die Stationshöhe richtig anzeigt.

NN: Luftdruck reduziert auf "Normal Null", auf Meereshöhe, dieser von der Temperatur abhängige Wert wird bisweilen unkorrekt einfach als "Luftdruck" bezeichnet. Eigentlich nur eine fiktive Größe, die es erlaubt, Stationen auf unterschiedlichen Höhen miteinander zu vergleichen.

Station: Realer Luftdruck an der Station.